createdAt,value
2019-04-06T04:02:04.797Z,79.620361
2019-04-06T04:05:35.671Z,78.863525
2019-04-06T04:09:05.549Z,79.272461
2019-04-06T04:12:35.397Z,79.272461
2019-04-06T04:16:05.309Z,79.785156
2019-04-06T04:19:35.334Z,80.505371
2019-04-06T04:23:04.993Z,80.541992
2019-04-06T04:26:34.863Z,80.743408
2019-04-06T04:30:04.737Z,80.090332
2019-04-06T04:33:35.580Z,79.785156
2019-04-06T04:37:05.465Z,79.272461
2019-04-06T04:40:35.425Z,79.272461
2019-04-06T04:44:05.313Z,78.45459
2019-04-06T04:47:35.076Z,77.703857
2019-04-06T04:51:04.945Z,77.496338
2019-04-06T04:54:34.865Z,77.801514
2019-04-06T04:58:04.761Z,77.496338
2019-04-06T05:01:34.582Z,78.35083
2019-04-06T05:05:02.454Z,78.35083
2019-04-06T05:08:32.309Z,78.759766
2019-04-06T05:12:02.190Z,78.35083
2019-04-06T05:15:32.191Z,78.149414
2019-04-06T05:19:02.060Z,78.55835
2019-04-06T05:22:31.818Z,78.24707
2019-04-06T05:26:01.681Z,78.35083
2019-04-06T05:29:33.099Z,78.35083
2019-04-06T05:33:02.398Z,78.149414
2019-04-06T05:36:32.262Z,78.112793
2019-04-06T05:40:02.124Z,78.521729
2019-04-06T05:43:31.990Z,77.703857
2019-04-06T05:47:02.013Z,78.112793
2019-04-06T05:50:31.708Z,78.723145
2019-04-06T05:54:01.546Z,78.826904
2019-04-06T06:02:28.238Z,78.076172
2019-04-06T06:05:59.159Z,77.459717
2019-04-06T06:14:09.026Z,77.22168
2019-04-06T06:17:38.848Z,77.630615
2019-04-06T06:21:08.784Z,77.11792
2019-04-06T06:24:38.720Z,77.319336
2019-04-06T06:28:14.802Z,76.812744
2019-04-06T06:31:42.370Z,76.879883
2019-04-06T06:35:12.159Z,76.672363
2019-04-06T06:38:41.974Z,76.531982
2019-04-06T06:42:13.786Z,75.10376
2019-04-06T06:45:43.640Z,74.761963
2019-04-06T06:49:14.122Z,74.01123
2019-04-06T06:52:44.668Z,73.059082
2019-04-06T06:56:14.511Z,72.857666
2019-04-06T06:59:44.349Z,72.143555
2019-04-06T07:03:14.169Z,72.515869
2019-04-06T07:06:44.009Z,72.924805
2019-04-06T07:10:13.986Z,72.619629
2019-04-06T07:13:43.902Z,71.289062
2019-04-06T07:17:13.708Z,72.076416
2019-04-06T07:20:43.535Z,71.362305
2019-04-06T07:24:13.398Z,71.228027
2019-04-06T07:27:43.426Z,71.295166
2019-04-06T07:31:13.295Z,70.410156
2019-04-06T07:34:43.981Z,70.074463
2019-04-06T07:38:13.816Z,69.561768
2019-04-06T07:41:43.664Z,69.122314
2019-04-06T07:45:13.596Z,68.273926
2019-04-06T07:48:43.397Z,68.786621
2019-04-06T07:52:13.220Z,67.96875
2019-04-06T07:55:43.076Z,68.481445
2019-04-06T07:59:12.969Z,69.189453
2019-04-06T08:02:43.815Z,68.682861
2019-04-06T08:06:13.681Z,68.444824
2019-04-06T08:09:43.392Z,67.401123
2019-04-06T08:13:13.219Z,67.095947
2019-04-06T08:16:43.039Z,66.790771
2019-04-06T08:20:13.896Z,66.687012
2019-04-06T08:23:43.931Z,66.888428
2019-04-06T08:27:13.579Z,66.149902
2019-04-06T08:30:46.416Z,65.844727
2019-04-06T08:34:15.277Z,66.320801
2019-04-06T08:37:45.155Z,63.879395
2019-04-06T08:41:15.146Z,65.405273
2019-04-06T08:44:44.853Z,65.783691
2019-04-06T08:48:14.821Z,64.532471
2019-04-06T08:51:44.765Z,63.922119
2019-04-06T08:55:14.618Z,64.63623
2019-04-06T08:58:44.452Z,65.209961
2019-04-06T09:02:14.343Z,63.183594
2019-04-06T09:05:44.438Z,63.05542
2019-04-06T09:09:15.194Z,62.8479
2019-04-06T09:12:48.503Z,64.544678
2019-04-06T09:16:19.281Z,62.994385
2019-04-06T09:19:49.215Z,62.762451
2019-04-06T09:23:19.255Z,61.547852
2019-04-06T09:26:49.160Z,60.913086
2019-04-06T09:30:19.020Z,62.329102
2019-04-06T09:33:48.847Z,61.187744
2019-04-06T09:37:21.017Z,60.894775
2019-04-06T09:40:51.963Z,57.867432
2019-04-06T09:44:21.643Z,59.509277
2019-04-06T09:47:51.502Z,58.947754
2019-04-06T09:51:21.623Z,58.544922
2019-04-06T09:54:51.230Z,57.409668
2019-04-06T09:58:21.069Z,58.721924
2019-04-06T10:01:50.933Z,59.020996
2019-04-06T10:05:20.798Z,57.611084
2019-04-06T10:08:51.902Z,58.691406
2019-04-06T10:12:21.617Z,56.848145
2019-04-06T10:15:51.494Z,54.205322
2019-04-06T10:19:21.389Z,56.115723
2019-04-06T10:22:51.275Z,55.358887
2019-04-06T10:26:21.209Z,55.157471
2019-04-06T10:29:51.187Z,55.004883
2019-04-06T10:33:21.183Z,53.674316
2019-04-06T10:36:51.179Z,54.278564
2019-04-06T10:40:21.105Z,53.094482
2019-04-06T10:43:50.863Z,47.540283
2019-04-06T10:47:20.706Z,45.031738
2019-04-06T10:50:51.547Z,44.885254
2019-04-06T10:54:21.410Z,45.916748
2019-04-06T10:57:51.633Z,42.370605
2019-04-06T11:01:21.764Z,42.944336
2019-04-06T11:04:51.765Z,44.799805
2019-04-06T11:08:21.670Z,45.123291
2019-04-06T11:11:51.738Z,45.397949
2019-04-06T11:15:24.342Z,43.54248
2019-04-06T11:18:54.343Z,42.926025
2019-04-06T11:22:25.674Z,43.145752
2019-04-06T11:25:55.545Z,42.492676
2019-04-06T11:29:25.389Z,44.042969
2019-04-06T11:32:55.316Z,43.499756
2019-04-06T11:36:25.514Z,42.84668
2019-04-06T11:39:56.319Z,43.200684
2019-04-06T11:43:26.287Z,42.828369
2019-04-06T11:46:56.340Z,42.071533
2019-04-06T11:50:26.358Z,40.643311
2019-04-06T11:53:56.259Z,40.124512
2019-04-06T11:57:26.176Z,39.355469
2019-04-06T12:00:56.087Z,39.154053
2019-04-06T12:04:27.132Z,38.262939
2019-04-06T12:07:56.700Z,39.807129
2019-04-06T12:11:26.570Z,39.428711
2019-04-06T12:14:57.308Z,39.190674
2019-04-06T12:18:27.252Z,39.489746
2019-04-06T12:21:57.116Z,39.276123
2019-04-06T12:25:27.104Z,39.886475
2019-04-06T12:28:56.787Z,39.111328
2019-04-06T12:32:26.656Z,39.489746
2019-04-06T12:35:56.631Z,40.026855
2019-04-06T12:39:26.355Z,40.045166
2019-04-06T12:42:56.206Z,42.053223
2019-04-06T12:46:26.054Z,39.074707
2019-04-06T12:49:56.128Z,39.709473
2019-04-06T12:53:26.063Z,40.026855
2019-04-06T12:56:55.761Z,40.557861
2019-04-06T13:00:25.599Z,39.544678
2019-04-06T13:03:55.473Z,39.483643
2019-04-06T13:07:25.366Z,39.73999
2019-04-06T13:10:55.367Z,41.516113
2019-04-06T13:14:25.236Z,42.871094
2019-04-06T13:17:55.080Z,41.772461
2019-04-06T13:21:25.227Z,43.115234
2019-04-06T13:24:54.865Z,42.895508
2019-04-06T13:28:24.779Z,43.273926
2019-04-06T13:31:58.928Z,40.41748
2019-04-06T13:35:29.816Z,41.278076
2019-04-06T13:38:59.998Z,39.581299
2019-04-06T13:42:29.990Z,40.997314
2019-04-06T13:45:59.774Z,40.240479
2019-04-06T13:49:30.084Z,39.044189
2019-04-06T13:53:01.674Z,38.946533
2019-04-06T13:56:30.812Z,38.311768
2019-04-06T14:00:00.684Z,38.806152
2019-04-06T14:03:30.658Z,40.002441
2019-04-06T14:07:01.564Z,40.301514
2019-04-06T14:10:31.431Z,40.338135
2019-04-06T14:14:01.276Z,41.815186
2019-04-06T14:17:31.468Z,43.688965
2019-04-06T14:21:02.379Z,44.952393
2019-04-06T14:24:31.929Z,44.65332
2019-04-06T14:28:02.065Z,44.049072
2019-04-06T14:31:32.629Z,42.608643
2019-04-06T14:35:02.481Z,43.304443
2019-04-06T14:38:32.306Z,43.487549
2019-04-06T14:42:02.154Z,42.791748
2019-04-06T14:45:32.210Z,42.254639
2019-04-06T14:49:10.930Z,43.389893
2019-04-06T14:52:37.599Z,42.492676
2019-04-06T14:56:07.873Z,41.333008
2019-04-06T14:59:37.277Z,41.094971
2019-04-06T15:03:07.195Z,40.95459
2019-04-06T15:06:37.133Z,43.408203
2019-04-06T15:10:06.886Z,43.188477
2019-04-06T15:13:36.723Z,46.130371
2019-04-06T15:17:06.566Z,45.648193
2019-04-06T15:20:37.370Z,45.874023
2019-04-06T15:24:07.284Z,46.374512
2019-04-06T15:27:37.375Z,47.363281
2019-04-06T15:31:06.926Z,48.309326
2019-04-06T15:34:36.982Z,49.780273
2019-04-06T15:38:06.886Z,50.43335
2019-04-06T15:41:36.569Z,52.191162
2019-04-06T15:45:07.610Z,51.965332
2019-04-06T15:48:39.961Z,52.46582
2019-04-06T15:52:14.310Z,53.69873
2019-04-06T15:55:44.023Z,52.441406
2019-04-06T15:59:13.531Z,54.907227
2019-04-06T16:02:17.229Z,55.59082
2019-04-06T16:05:46.991Z,57.391357
2019-04-06T16:09:17.804Z,57.891846
2019-04-06T16:12:47.664Z,57.995605
2019-04-06T16:16:17.547Z,58.856201
2019-04-06T16:19:47.407Z,58.728027
2019-04-06T16:23:17.265Z,58.227539
2019-04-06T16:26:47.468Z,59.625244
2019-04-06T16:30:17.796Z,60.839844
2019-04-06T16:33:47.079Z,60.894775
2019-04-06T16:37:16.880Z,61.230469
2019-04-06T16:40:47.135Z,61.560059
2019-04-06T16:44:16.808Z,61.254883
2019-04-06T16:47:46.812Z,61.053467
2019-04-06T16:51:16.841Z,62.200928
2019-04-06T16:54:46.758Z,62.506104
2019-04-06T16:58:16.764Z,62.738037
2019-04-06T17:01:47.050Z,63.171387
2019-04-06T17:05:17.410Z,63.50708
2019-04-06T17:08:47.489Z,64.044189
2019-04-06T17:12:17.381Z,65.466309
2019-04-06T17:15:47.357Z,65.496826
2019-04-06T17:19:17.231Z,65.19165
2019-04-06T17:22:47.143Z,65.429688
2019-04-06T17:26:17.553Z,66.778564
2019-04-06T17:29:48.222Z,66.577148
2019-04-06T17:33:18.952Z,66.711426
2019-04-06T17:36:49.220Z,67.553711
2019-04-06T17:40:19.043Z,67.993164
2019-04-06T17:43:49.434Z,68.811035
2019-04-06T17:47:19.145Z,69.458008
2019-04-06T17:50:49.191Z,70.269775
2019-04-06T17:54:19.132Z,70.507812
2019-04-06T17:57:49.096Z,70.916748
2019-04-06T18:01:19.055Z,70.74585
2019-04-06T18:04:49.037Z,72.717285
2019-04-06T18:08:18.978Z,72.821045
2019-04-06T18:11:48.711Z,73.028564
2019-04-06T18:15:18.782Z,72.717285
2019-04-06T18:18:48.463Z,73.571777
2019-04-06T18:22:18.448Z,73.608398
2019-04-06T18:25:48.523Z,74.21875
2019-04-06T18:29:18.517Z,73.809814
2019-04-06T18:32:58.716Z,74.865723
2019-04-06T18:36:23.292Z,74.255371
2019-04-06T18:39:53.548Z,73.846436
2019-04-06T18:43:23.300Z,74.456787
2019-04-06T18:46:52.949Z,74.902344
2019-04-06T18:50:33.144Z,74.798584
2019-04-06T18:53:57.781Z,75.10376
2019-04-06T18:57:27.699Z,75.653076
2019-04-06T19:00:58.480Z,75.958252
2019-04-06T19:04:28.137Z,76.916504
2019-04-06T19:07:58.548Z,76.715088
2019-04-06T19:11:28.070Z,76.306152
2019-04-06T19:14:58.037Z,76.306152
2019-04-06T19:18:29.447Z,76.44043
2019-04-06T19:21:59.963Z,76.953125
2019-04-06T19:25:29.962Z,77.362061
2019-04-06T19:28:59.650Z,77.56958
2019-04-06T19:32:29.585Z,78.527832
2019-04-06T19:35:59.476Z,77.197266
2019-04-06T19:39:29.520Z,77.362061
2019-04-06T19:43:01.097Z,77.093506
2019-04-06T19:46:32.166Z,77.606201
2019-04-06T19:50:03.334Z,77.947998
2019-04-06T19:53:33.412Z,77.911377
2019-04-06T19:57:04.331Z,78.051758
2019-04-06T20:00:34.760Z,78.356934
2019-04-06T20:04:04.658Z,78.869629
2019-04-06T20:07:39.740Z,79.11377
2019-04-06T20:11:09.984Z,79.11377
2019-04-06T20:14:40.959Z,79.11377
2019-04-06T20:18:11.718Z,79.321289
2019-04-06T20:21:42.023Z,80.383301
2019-04-06T20:25:12.568Z,80.487061
2019-04-06T20:28:42.166Z,80.487061
2019-04-06T20:32:13.410Z,81.103516
2019-04-06T20:35:43.996Z,81.201172
2019-04-06T20:39:13.812Z,80.487061
2019-04-06T20:42:44.891Z,80.108643
2019-04-06T20:46:16.959Z,81.243896
2019-04-06T20:49:49.471Z,80.932617
2019-04-06T20:53:19.864Z,81.549072
2019-04-06T20:56:55.111Z,81.585693
2019-04-06T21:00:24.682Z,82.617188
2019-04-06T21:04:00.686Z,82.098389
2019-04-06T21:07:28.700Z,82.409668
2019-04-06T21:10:58.913Z,83.435059
2019-04-06T21:14:30.540Z,82.409668
2019-04-06T21:18:00.946Z,83.129883
2019-04-06T21:21:30.455Z,82.958984
2019-04-06T21:25:00.464Z,83.477783
2019-04-06T21:28:31.061Z,83.374023
2019-04-06T21:32:01.645Z,83.575439
2019-04-06T21:35:31.700Z,83.618164
2019-04-06T21:39:02.404Z,83.966064
2019-04-06T21:42:32.960Z,84.539795
2019-04-06T21:46:02.433Z,84.27124
2019-04-06T21:49:32.698Z,84.27124
2019-04-06T21:53:02.635Z,85.095215
2019-04-06T21:56:32.984Z,85.137939
2019-04-06T22:00:02.942Z,85.650635
